<?xml version="1.0" encoding="UTF-8" standalone="no" ?>
<gpx xmlns="http://www.topografix.com/GPX/1/1" xmlns:xsi="http://www.w3.org/2001/XMLSchema-instance" xsi:schemaLocation="http://www.topografix.com/GPX/1/1 http://www.topografix.com/GPX/1/1/gpx.xsd" version="1.1" creator="VisuGPX - https://www.visugpx.com">
  <metadata>
    <name>Velo</name>
    <desc><![CDATA[idor:10246719_102515280_10794639_12973163_1418743_13428926_12998252_13558460_14716825_14357364_14251590]]></desc>
  </metadata>
  <trk>
    <name><![CDATA[Carquefou_DomicileVoieVerte_9.3km-12973163]]></name>
    <extensions>
      <line xmlns="http://www.topografix.com/GPX/gpx_style/0/2">
        <color>00FFFF</color>
        <width>4</width>
      </line>
    </extensions>
    <trkseg>
      <trkpt lat="47.29763" lon="-1.48598">
        <ele>25</ele>
        <time>2023-11-15T07:46:52Z</time>
      </trkpt>
      <trkpt lat="47.29737" lon="-1.48594">
        <ele>25</ele>
        <time>2023-11-15T07:47:27Z</time>
      </trkpt>
      <trkpt lat="47.29708" lon="-1.48587">
        <ele>26</ele>
        <time>2023-11-15T07:48:06Z</time>
      </trkpt>
      <trkpt lat="47.29683" lon="-1.48583">
        <ele>26</ele>
        <time>2023-11-15T07:48:40Z</time>
      </trkpt>
      <trkpt lat="47.29665" lon="-1.48603">
        <ele>26</ele>
        <time>2023-11-15T07:49:10Z</time>
      </trkpt>
      <trkpt lat="47.29657" lon="-1.4864">
        <ele>27</ele>
        <time>2023-11-15T07:49:45Z</time>
      </trkpt>
      <trkpt lat="47.29623" lon="-1.48656">
        <ele>28</ele>
        <time>2023-11-15T07:50:33Z</time>
      </trkpt>
      <trkpt lat="47.29603" lon="-1.48663">
        <ele>28</ele>
        <time>2023-11-15T07:51:00Z</time>
      </trkpt>
      <trkpt lat="47.2954" lon="-1.48689">
        <ele>30</ele>
        <time>2023-11-15T07:52:27Z</time>
      </trkpt>
      <trkpt lat="47.29514" lon="-1.48701">
        <ele>30</ele>
        <time>2023-11-15T07:53:04Z</time>
      </trkpt>
      <trkpt lat="47.29485" lon="-1.4873">
        <ele>30</ele>
        <time>2023-11-15T07:53:50Z</time>
      </trkpt>
      <trkpt lat="47.29434" lon="-1.48773">
        <ele>29</ele>
        <time>2023-11-15T07:55:09Z</time>
      </trkpt>
      <trkpt lat="47.29416" lon="-1.48788">
        <ele>29</ele>
        <time>2023-11-15T07:55:36Z</time>
      </trkpt>
      <trkpt lat="47.29407" lon="-1.48815">
        <ele>28</ele>
        <time>2023-11-15T07:56:04Z</time>
      </trkpt>
      <trkpt lat="47.2939" lon="-1.48839">
        <ele>27</ele>
        <time>2023-11-15T07:56:35Z</time>
      </trkpt>
      <trkpt lat="47.29375" lon="-1.48867">
        <ele>27</ele>
        <time>2023-11-15T07:57:07Z</time>
      </trkpt>
      <trkpt lat="47.29364" lon="-1.48898">
        <ele>27</ele>
        <time>2023-11-15T07:57:39Z</time>
      </trkpt>
      <trkpt lat="47.29349" lon="-1.48942">
        <ele>26</ele>
        <time>2023-11-15T07:58:24Z</time>
      </trkpt>
      <trkpt lat="47.29339" lon="-1.48982">
        <ele>25</ele>
        <time>2023-11-15T07:59:02Z</time>
      </trkpt>
      <trkpt lat="47.29334" lon="-1.49023">
        <ele>25</ele>
        <time>2023-11-15T07:59:40Z</time>
      </trkpt>
      <trkpt lat="47.29332" lon="-1.49062">
        <ele>24</ele>
        <time>2023-11-15T08:00:15Z</time>
      </trkpt>
      <trkpt lat="47.2933" lon="-1.49139">
        <ele>23</ele>
        <time>2023-11-15T08:01:25Z</time>
      </trkpt>
      <trkpt lat="47.29329" lon="-1.49175">
        <ele>23</ele>
        <time>2023-11-15T08:01:58Z</time>
      </trkpt>
      <trkpt lat="47.29329" lon="-1.49209">
        <ele>22</ele>
        <time>2023-11-15T08:02:28Z</time>
      </trkpt>
      <trkpt lat="47.29331" lon="-1.49242">
        <ele>21</ele>
        <time>2023-11-15T08:02:58Z</time>
      </trkpt>
      <trkpt lat="47.29331" lon="-1.49279">
        <ele>21</ele>
        <time>2023-11-15T08:03:32Z</time>
      </trkpt>
      <trkpt lat="47.29331" lon="-1.49312">
        <ele>21</ele>
        <time>2023-11-15T08:04:02Z</time>
      </trkpt>
      <trkpt lat="47.29329" lon="-1.49346">
        <ele>21</ele>
        <time>2023-11-15T08:04:33Z</time>
      </trkpt>
      <trkpt lat="47.29328" lon="-1.4938">
        <ele>21</ele>
        <time>2023-11-15T08:05:03Z</time>
      </trkpt>
      <trkpt lat="47.29322" lon="-1.4941">
        <ele>22</ele>
        <time>2023-11-15T08:05:32Z</time>
      </trkpt>
      <trkpt lat="47.29315" lon="-1.49442">
        <ele>21</ele>
        <time>2023-11-15T08:06:02Z</time>
      </trkpt>
      <trkpt lat="47.29312" lon="-1.49474">
        <ele>21</ele>
        <time>2023-11-15T08:06:31Z</time>
      </trkpt>
      <trkpt lat="47.29306" lon="-1.49509">
        <ele>20</ele>
        <time>2023-11-15T08:07:04Z</time>
      </trkpt>
      <trkpt lat="47.293" lon="-1.49543">
        <ele>19</ele>
        <time>2023-11-15T08:07:36Z</time>
      </trkpt>
      <trkpt lat="47.29292" lon="-1.49574">
        <ele>18</ele>
        <time>2023-11-15T08:08:06Z</time>
      </trkpt>
      <trkpt lat="47.29291" lon="-1.49605">
        <ele>17</ele>
        <time>2023-11-15T08:08:34Z</time>
      </trkpt>
      <trkpt lat="47.29284" lon="-1.49639">
        <ele>17</ele>
        <time>2023-11-15T08:09:06Z</time>
      </trkpt>
      <trkpt lat="47.29274" lon="-1.49663">
        <ele>16</ele>
        <time>2023-11-15T08:09:32Z</time>
      </trkpt>
      <trkpt lat="47.29265" lon="-1.49692">
        <ele>16</ele>
        <time>2023-11-15T08:10:00Z</time>
      </trkpt>
      <trkpt lat="47.29269" lon="-1.49728">
        <ele>15</ele>
        <time>2023-11-15T08:10:33Z</time>
      </trkpt>
      <trkpt lat="47.29255" lon="-1.4975">
        <ele>15</ele>
        <time>2023-11-15T08:11:01Z</time>
      </trkpt>
      <trkpt lat="47.29234" lon="-1.49753">
        <ele>15</ele>
        <time>2023-11-15T08:11:29Z</time>
      </trkpt>
      <trkpt lat="47.29217" lon="-1.4977">
        <ele>14</ele>
        <time>2023-11-15T08:11:56Z</time>
      </trkpt>
      <trkpt lat="47.29202" lon="-1.49787">
        <ele>13</ele>
        <time>2023-11-15T08:12:22Z</time>
      </trkpt>
      <trkpt lat="47.29169" lon="-1.49795">
        <ele>13</ele>
        <time>2023-11-15T08:13:06Z</time>
      </trkpt>
      <trkpt lat="47.29159" lon="-1.49818">
        <ele>12</ele>
        <time>2023-11-15T08:13:31Z</time>
      </trkpt>
      <trkpt lat="47.29144" lon="-1.49835">
        <ele>12</ele>
        <time>2023-11-15T08:13:56Z</time>
      </trkpt>
      <trkpt lat="47.29127" lon="-1.4985">
        <ele>12</ele>
        <time>2023-11-15T08:14:23Z</time>
      </trkpt>
      <trkpt lat="47.2911" lon="-1.49863">
        <ele>12</ele>
        <time>2023-11-15T08:14:48Z</time>
      </trkpt>
      <trkpt lat="47.2908" lon="-1.49879">
        <ele>12</ele>
        <time>2023-11-15T08:15:31Z</time>
      </trkpt>
      <trkpt lat="47.29028" lon="-1.49901">
        <ele>11</ele>
        <time>2023-11-15T08:16:43Z</time>
      </trkpt>
      <trkpt lat="47.29007" lon="-1.49908">
        <ele>11</ele>
        <time>2023-11-15T08:17:12Z</time>
      </trkpt>
      <trkpt lat="47.28983" lon="-1.49915">
        <ele>12</ele>
        <time>2023-11-15T08:17:44Z</time>
      </trkpt>
      <trkpt lat="47.28956" lon="-1.49919">
        <ele>13</ele>
        <time>2023-11-15T08:18:21Z</time>
      </trkpt>
      <trkpt lat="47.28931" lon="-1.49918">
        <ele>13</ele>
        <time>2023-11-15T08:18:54Z</time>
      </trkpt>
      <trkpt lat="47.28903" lon="-1.49916">
        <ele>14</ele>
        <time>2023-11-15T08:19:31Z</time>
      </trkpt>
      <trkpt lat="47.28879" lon="-1.49908">
        <ele>15</ele>
        <time>2023-11-15T08:20:04Z</time>
      </trkpt>
      <trkpt lat="47.2886" lon="-1.49898">
        <ele>15</ele>
        <time>2023-11-15T08:20:31Z</time>
      </trkpt>
      <trkpt lat="47.28842" lon="-1.49887">
        <ele>15</ele>
        <time>2023-11-15T08:20:57Z</time>
      </trkpt>
      <trkpt lat="47.28808" lon="-1.49893">
        <ele>15</ele>
        <time>2023-11-15T08:21:43Z</time>
      </trkpt>
      <trkpt lat="47.28775" lon="-1.49897">
        <ele>15</ele>
        <time>2023-11-15T08:22:27Z</time>
      </trkpt>
      <trkpt lat="47.28742" lon="-1.49907">
        <ele>16</ele>
        <time>2023-11-15T08:23:12Z</time>
      </trkpt>
      <trkpt lat="47.28713" lon="-1.49927">
        <ele>16</ele>
        <time>2023-11-15T08:23:55Z</time>
      </trkpt>
      <trkpt lat="47.28687" lon="-1.49945">
        <ele>16</ele>
        <time>2023-11-15T08:24:33Z</time>
      </trkpt>
      <trkpt lat="47.28657" lon="-1.49984">
        <ele>17</ele>
        <time>2023-11-15T08:25:26Z</time>
      </trkpt>
      <trkpt lat="47.28627" lon="-1.50027">
        <ele>17</ele>
        <time>2023-11-15T08:26:22Z</time>
      </trkpt>
      <trkpt lat="47.2861" lon="-1.50047">
        <ele>17</ele>
        <time>2023-11-15T08:26:51Z</time>
      </trkpt>
      <trkpt lat="47.2858" lon="-1.50091">
        <ele>17</ele>
        <time>2023-11-15T08:27:48Z</time>
      </trkpt>
      <trkpt lat="47.28565" lon="-1.50113">
        <ele>16</ele>
        <time>2023-11-15T08:28:16Z</time>
      </trkpt>
      <trkpt lat="47.28541" lon="-1.50161">
        <ele>16</ele>
        <time>2023-11-15T08:29:10Z</time>
      </trkpt>
      <trkpt lat="47.2853" lon="-1.50183">
        <ele>16</ele>
        <time>2023-11-15T08:29:35Z</time>
      </trkpt>
      <trkpt lat="47.28514" lon="-1.50227">
        <ele>17</ele>
        <time>2023-11-15T08:30:20Z</time>
      </trkpt>
      <trkpt lat="47.28503" lon="-1.50251">
        <ele>17</ele>
        <time>2023-11-15T08:30:46Z</time>
      </trkpt>
      <trkpt lat="47.28488" lon="-1.50293">
        <ele>18</ele>
        <time>2023-11-15T08:31:29Z</time>
      </trkpt>
      <trkpt lat="47.28472" lon="-1.5033">
        <ele>18</ele>
        <time>2023-11-15T08:32:09Z</time>
      </trkpt>
      <trkpt lat="47.28448" lon="-1.50372">
        <ele>18</ele>
        <time>2023-11-15T08:32:58Z</time>
      </trkpt>
      <trkpt lat="47.28406" lon="-1.50459">
        <ele>17</ele>
        <time>2023-11-15T08:34:35Z</time>
      </trkpt>
      <trkpt lat="47.28394" lon="-1.50479">
        <ele>17</ele>
        <time>2023-11-15T08:34:59Z</time>
      </trkpt>
      <trkpt lat="47.28381" lon="-1.50499">
        <ele>18</ele>
        <time>2023-11-15T08:35:24Z</time>
      </trkpt>
      <trkpt lat="47.28368" lon="-1.5052">
        <ele>18</ele>
        <time>2023-11-15T08:35:50Z</time>
      </trkpt>
      <trkpt lat="47.28343" lon="-1.50543">
        <ele>18</ele>
        <time>2023-11-15T08:36:29Z</time>
      </trkpt>
      <trkpt lat="47.28311" lon="-1.5056">
        <ele>19</ele>
        <time>2023-11-15T08:37:15Z</time>
      </trkpt>
      <trkpt lat="47.28299" lon="-1.50584">
        <ele>19</ele>
        <time>2023-11-15T08:37:42Z</time>
      </trkpt>
      <trkpt lat="47.28292" lon="-1.50617">
        <ele>20</ele>
        <time>2023-11-15T08:38:13Z</time>
      </trkpt>
      <trkpt lat="47.28266" lon="-1.50638">
        <ele>20</ele>
        <time>2023-11-15T08:38:53Z</time>
      </trkpt>
      <trkpt lat="47.28239" lon="-1.50658">
        <ele>20</ele>
        <time>2023-11-15T08:39:33Z</time>
      </trkpt>
      <trkpt lat="47.28222" lon="-1.5067">
        <ele>20</ele>
        <time>2023-11-15T08:39:58Z</time>
      </trkpt>
      <trkpt lat="47.2819" lon="-1.50692">
        <ele>19</ele>
        <time>2023-11-15T08:40:45Z</time>
      </trkpt>
      <trkpt lat="47.28174" lon="-1.50704">
        <ele>19</ele>
        <time>2023-11-15T08:41:09Z</time>
      </trkpt>
      <trkpt lat="47.28129" lon="-1.50737">
        <ele>20</ele>
        <time>2023-11-15T08:42:16Z</time>
      </trkpt>
      <trkpt lat="47.281" lon="-1.50759">
        <ele>21</ele>
        <time>2023-11-15T08:43:00Z</time>
      </trkpt>
      <trkpt lat="47.2807" lon="-1.50779">
        <ele>22</ele>
        <time>2023-11-15T08:43:44Z</time>
      </trkpt>
      <trkpt lat="47.28043" lon="-1.50797">
        <ele>23</ele>
        <time>2023-11-15T08:44:23Z</time>
      </trkpt>
      <trkpt lat="47.28028" lon="-1.5081">
        <ele>24</ele>
        <time>2023-11-15T08:44:47Z</time>
      </trkpt>
      <trkpt lat="47.28" lon="-1.50827">
        <ele>25</ele>
        <time>2023-11-15T08:45:27Z</time>
      </trkpt>
      <trkpt lat="47.27953" lon="-1.50862">
        <ele>25</ele>
        <time>2023-11-15T08:46:37Z</time>
      </trkpt>
      <trkpt lat="47.27923" lon="-1.5088">
        <ele>25</ele>
        <time>2023-11-15T08:47:20Z</time>
      </trkpt>
      <trkpt lat="47.27892" lon="-1.50893">
        <ele>25</ele>
        <time>2023-11-15T08:48:03Z</time>
      </trkpt>
      <trkpt lat="47.27858" lon="-1.50901">
        <ele>25</ele>
        <time>2023-11-15T08:48:49Z</time>
      </trkpt>
      <trkpt lat="47.27839" lon="-1.50906">
        <ele>25</ele>
        <time>2023-11-15T08:49:15Z</time>
      </trkpt>
      <trkpt lat="47.2782" lon="-1.50912">
        <ele>25</ele>
        <time>2023-11-15T08:49:41Z</time>
      </trkpt>
      <trkpt lat="47.278" lon="-1.50919">
        <ele>25</ele>
        <time>2023-11-15T08:50:08Z</time>
      </trkpt>
      <trkpt lat="47.2778" lon="-1.50924">
        <ele>25</ele>
        <time>2023-11-15T08:50:36Z</time>
      </trkpt>
      <trkpt lat="47.2776" lon="-1.50929">
        <ele>25</ele>
        <time>2023-11-15T08:51:03Z</time>
      </trkpt>
      <trkpt lat="47.27719" lon="-1.50941">
        <ele>26</ele>
        <time>2023-11-15T08:51:58Z</time>
      </trkpt>
      <trkpt lat="47.27698" lon="-1.50947">
        <ele>27</ele>
        <time>2023-11-15T08:52:27Z</time>
      </trkpt>
      <trkpt lat="47.27677" lon="-1.50951">
        <ele>27</ele>
        <time>2023-11-15T08:52:55Z</time>
      </trkpt>
      <trkpt lat="47.27657" lon="-1.50954">
        <ele>27</ele>
        <time>2023-11-15T08:53:22Z</time>
      </trkpt>
      <trkpt lat="47.27635" lon="-1.50955">
        <ele>27</ele>
        <time>2023-11-15T08:53:51Z</time>
      </trkpt>
      <trkpt lat="47.27595" lon="-1.50955">
        <ele>26</ele>
        <time>2023-11-15T08:54:45Z</time>
      </trkpt>
      <trkpt lat="47.2756" lon="-1.50954">
        <ele>26</ele>
        <time>2023-11-15T08:55:32Z</time>
      </trkpt>
      <trkpt lat="47.27541" lon="-1.50958">
        <ele>26</ele>
        <time>2023-11-15T08:55:57Z</time>
      </trkpt>
      <trkpt lat="47.27518" lon="-1.50964">
        <ele>25</ele>
        <time>2023-11-15T08:56:28Z</time>
      </trkpt>
      <trkpt lat="47.2751" lon="-1.51004">
        <ele>25</ele>
        <time>2023-11-15T08:57:06Z</time>
      </trkpt>
      <trkpt lat="47.27517" lon="-1.51028">
        <ele>25</ele>
        <time>2023-11-15T08:57:30Z</time>
      </trkpt>
      <trkpt lat="47.27531" lon="-1.51068">
        <ele>26</ele>
        <time>2023-11-15T08:58:10Z</time>
      </trkpt>
      <trkpt lat="47.27546" lon="-1.51105">
        <ele>25</ele>
        <time>2023-11-15T08:58:49Z</time>
      </trkpt>
      <trkpt lat="47.27562" lon="-1.51131">
        <ele>25</ele>
        <time>2023-11-15T08:59:21Z</time>
      </trkpt>
      <trkpt lat="47.27576" lon="-1.51176">
        <ele>24</ele>
        <time>2023-11-15T09:00:06Z</time>
      </trkpt>
      <trkpt lat="47.27593" lon="-1.51225">
        <ele>23</ele>
        <time>2023-11-15T09:00:56Z</time>
      </trkpt>
      <trkpt lat="47.27601" lon="-1.51249">
        <ele>23</ele>
        <time>2023-11-15T09:01:20Z</time>
      </trkpt>
      <trkpt lat="47.27608" lon="-1.51279">
        <ele>23</ele>
        <time>2023-11-15T09:01:49Z</time>
      </trkpt>
      <trkpt lat="47.27591" lon="-1.51311">
        <ele>23</ele>
        <time>2023-11-15T09:02:26Z</time>
      </trkpt>
      <trkpt lat="47.27544" lon="-1.51335">
        <ele>22</ele>
        <time>2023-11-15T09:03:32Z</time>
      </trkpt>
      <trkpt lat="47.27525" lon="-1.51346">
        <ele>21</ele>
        <time>2023-11-15T09:03:59Z</time>
      </trkpt>
      <trkpt lat="47.27489" lon="-1.51363">
        <ele>21</ele>
        <time>2023-11-15T09:04:50Z</time>
      </trkpt>
      <trkpt lat="47.27471" lon="-1.5137">
        <ele>20</ele>
        <time>2023-11-15T09:05:15Z</time>
      </trkpt>
      <trkpt lat="47.27461" lon="-1.51403">
        <ele>19</ele>
        <time>2023-11-15T09:05:47Z</time>
      </trkpt>
      <trkpt lat="47.27447" lon="-1.51421">
        <ele>18</ele>
        <time>2023-11-15T09:06:12Z</time>
      </trkpt>
      <trkpt lat="47.27429" lon="-1.51434">
        <ele>17</ele>
        <time>2023-11-15T09:06:39Z</time>
      </trkpt>
      <trkpt lat="47.27409" lon="-1.51442">
        <ele>18</ele>
        <time>2023-11-15T09:07:06Z</time>
      </trkpt>
      <trkpt lat="47.27388" lon="-1.51451">
        <ele>19</ele>
        <time>2023-11-15T09:07:36Z</time>
      </trkpt>
      <trkpt lat="47.27371" lon="-1.5146">
        <ele>20</ele>
        <time>2023-11-15T09:08:00Z</time>
      </trkpt>
      <trkpt lat="47.27341" lon="-1.51474">
        <ele>23</ele>
        <time>2023-11-15T09:08:42Z</time>
      </trkpt>
      <trkpt lat="47.27315" lon="-1.51493">
        <ele>24</ele>
        <time>2023-11-15T09:09:20Z</time>
      </trkpt>
      <trkpt lat="47.27288" lon="-1.51511">
        <ele>25</ele>
        <time>2023-11-15T09:10:00Z</time>
      </trkpt>
      <trkpt lat="47.27262" lon="-1.51531">
        <ele>25</ele>
        <time>2023-11-15T09:10:39Z</time>
      </trkpt>
      <trkpt lat="47.27238" lon="-1.51552">
        <ele>26</ele>
        <time>2023-11-15T09:11:16Z</time>
      </trkpt>
      <trkpt lat="47.27219" lon="-1.51581">
        <ele>26</ele>
        <time>2023-11-15T09:11:53Z</time>
      </trkpt>
      <trkpt lat="47.27207" lon="-1.51619">
        <ele>27</ele>
        <time>2023-11-15T09:12:31Z</time>
      </trkpt>
      <trkpt lat="47.27182" lon="-1.51642">
        <ele>27</ele>
        <time>2023-11-15T09:13:10Z</time>
      </trkpt>
      <trkpt lat="47.2716" lon="-1.51674">
        <ele>27</ele>
        <time>2023-11-15T09:13:51Z</time>
      </trkpt>
      <trkpt lat="47.2714" lon="-1.51713">
        <ele>29</ele>
        <time>2023-11-15T09:14:36Z</time>
      </trkpt>
      <trkpt lat="47.2712" lon="-1.51752">
        <ele>30</ele>
        <time>2023-11-15T09:15:20Z</time>
      </trkpt>
      <trkpt lat="47.27099" lon="-1.51787">
        <ele>29</ele>
        <time>2023-11-15T09:16:02Z</time>
      </trkpt>
      <trkpt lat="47.27058" lon="-1.51866">
        <ele>28</ele>
        <time>2023-11-15T09:17:32Z</time>
      </trkpt>
      <trkpt lat="47.27036" lon="-1.51898">
        <ele>27</ele>
        <time>2023-11-15T09:18:14Z</time>
      </trkpt>
      <trkpt lat="47.27011" lon="-1.51929">
        <ele>27</ele>
        <time>2023-11-15T09:18:57Z</time>
      </trkpt>
      <trkpt lat="47.26981" lon="-1.51958">
        <ele>26</ele>
        <time>2023-11-15T09:19:45Z</time>
      </trkpt>
      <trkpt lat="47.26963" lon="-1.5197">
        <ele>26</ele>
        <time>2023-11-15T09:20:11Z</time>
      </trkpt>
      <trkpt lat="47.26943" lon="-1.51981">
        <ele>26</ele>
        <time>2023-11-15T09:20:40Z</time>
      </trkpt>
      <trkpt lat="47.26923" lon="-1.51999">
        <ele>25</ele>
        <time>2023-11-15T09:21:11Z</time>
      </trkpt>
      <trkpt lat="47.26884" lon="-1.52036">
        <ele>24</ele>
        <time>2023-11-15T09:22:13Z</time>
      </trkpt>
      <trkpt lat="47.26865" lon="-1.52055">
        <ele>23</ele>
        <time>2023-11-15T09:22:44Z</time>
      </trkpt>
      <trkpt lat="47.2685" lon="-1.52079">
        <ele>23</ele>
        <time>2023-11-15T09:23:13Z</time>
      </trkpt>
      <trkpt lat="47.26838" lon="-1.52109">
        <ele>22</ele>
        <time>2023-11-15T09:23:45Z</time>
      </trkpt>
      <trkpt lat="47.26825" lon="-1.52136">
        <ele>22</ele>
        <time>2023-11-15T09:24:15Z</time>
      </trkpt>
      <trkpt lat="47.26811" lon="-1.52165">
        <ele>22</ele>
        <time>2023-11-15T09:24:47Z</time>
      </trkpt>
      <trkpt lat="47.26752" lon="-1.52299">
        <ele>21</ele>
        <time>2023-11-15T09:27:12Z</time>
      </trkpt>
      <trkpt lat="47.26737" lon="-1.52329">
        <ele>21</ele>
        <time>2023-11-15T09:27:45Z</time>
      </trkpt>
      <trkpt lat="47.2672" lon="-1.52358">
        <ele>21</ele>
        <time>2023-11-15T09:28:20Z</time>
      </trkpt>
      <trkpt lat="47.26703" lon="-1.52385">
        <ele>21</ele>
        <time>2023-11-15T09:28:53Z</time>
      </trkpt>
      <trkpt lat="47.26683" lon="-1.52411">
        <ele>21</ele>
        <time>2023-11-15T09:29:29Z</time>
      </trkpt>
      <trkpt lat="47.26666" lon="-1.52438">
        <ele>22</ele>
        <time>2023-11-15T09:30:02Z</time>
      </trkpt>
      <trkpt lat="47.26651" lon="-1.52465">
        <ele>22</ele>
        <time>2023-11-15T09:30:34Z</time>
      </trkpt>
      <trkpt lat="47.26619" lon="-1.52515">
        <ele>23</ele>
        <time>2023-11-15T09:31:36Z</time>
      </trkpt>
      <trkpt lat="47.26603" lon="-1.52539">
        <ele>23</ele>
        <time>2023-11-15T09:32:07Z</time>
      </trkpt>
      <trkpt lat="47.26588" lon="-1.5256">
        <ele>24</ele>
        <time>2023-11-15T09:32:34Z</time>
      </trkpt>
      <trkpt lat="47.26572" lon="-1.52578">
        <ele>24</ele>
        <time>2023-11-15T09:33:01Z</time>
      </trkpt>
      <trkpt lat="47.26556" lon="-1.52594">
        <ele>23</ele>
        <time>2023-11-15T09:33:27Z</time>
      </trkpt>
      <trkpt lat="47.26539" lon="-1.52609">
        <ele>23</ele>
        <time>2023-11-15T09:33:53Z</time>
      </trkpt>
      <trkpt lat="47.26521" lon="-1.52627">
        <ele>22</ele>
        <time>2023-11-15T09:34:22Z</time>
      </trkpt>
      <trkpt lat="47.26501" lon="-1.5264">
        <ele>21</ele>
        <time>2023-11-15T09:34:52Z</time>
      </trkpt>
      <trkpt lat="47.26482" lon="-1.52655">
        <ele>21</ele>
        <time>2023-11-15T09:35:20Z</time>
      </trkpt>
      <trkpt lat="47.26417" lon="-1.52699">
        <ele>22</ele>
        <time>2023-11-15T09:36:56Z</time>
      </trkpt>
      <trkpt lat="47.26395" lon="-1.52717">
        <ele>22</ele>
        <time>2023-11-15T09:37:29Z</time>
      </trkpt>
      <trkpt lat="47.26374" lon="-1.52745">
        <ele>21</ele>
        <time>2023-11-15T09:38:07Z</time>
      </trkpt>
      <trkpt lat="47.26351" lon="-1.52774">
        <ele>20</ele>
        <time>2023-11-15T09:38:48Z</time>
      </trkpt>
      <trkpt lat="47.2632" lon="-1.52797">
        <ele>18</ele>
        <time>2023-11-15T09:39:34Z</time>
      </trkpt>
      <trkpt lat="47.26288" lon="-1.52817">
        <ele>15</ele>
        <time>2023-11-15T09:40:20Z</time>
      </trkpt>
      <trkpt lat="47.26255" lon="-1.52835">
        <ele>12</ele>
        <time>2023-11-15T09:41:07Z</time>
      </trkpt>
      <trkpt lat="47.26221" lon="-1.52849">
        <ele>12</ele>
        <time>2023-11-15T09:41:54Z</time>
      </trkpt>
      <trkpt lat="47.26135" lon="-1.52855">
        <ele>14</ele>
        <time>2023-11-15T09:43:49Z</time>
      </trkpt>
      <trkpt lat="47.2611" lon="-1.52855">
        <ele>16</ele>
        <time>2023-11-15T09:44:23Z</time>
      </trkpt>
      <trkpt lat="47.25969" lon="-1.52802">
        <ele>18</ele>
        <time>2023-11-15T09:47:37Z</time>
      </trkpt>
      <trkpt lat="47.25941" lon="-1.52792">
        <ele>18</ele>
        <time>2023-11-15T09:48:15Z</time>
      </trkpt>
      <trkpt lat="47.25906" lon="-1.52793">
        <ele>19</ele>
        <time>2023-11-15T09:49:02Z</time>
      </trkpt>
      <trkpt lat="47.25886" lon="-1.52795">
        <ele>19</ele>
        <time>2023-11-15T09:49:29Z</time>
      </trkpt>
      <trkpt lat="47.25866" lon="-1.52802">
        <ele>19</ele>
        <time>2023-11-15T09:49:56Z</time>
      </trkpt>
      <trkpt lat="47.25848" lon="-1.52813">
        <ele>20</ele>
        <time>2023-11-15T09:50:22Z</time>
      </trkpt>
      <trkpt lat="47.2583" lon="-1.52826">
        <ele>20</ele>
        <time>2023-11-15T09:50:49Z</time>
      </trkpt>
      <trkpt lat="47.2581" lon="-1.52838">
        <ele>19</ele>
        <time>2023-11-15T09:51:18Z</time>
      </trkpt>
      <trkpt lat="47.25763" lon="-1.52877">
        <ele>20</ele>
        <time>2023-11-15T09:52:30Z</time>
      </trkpt>
      <trkpt lat="47.25742" lon="-1.52895">
        <ele>20</ele>
        <time>2023-11-15T09:53:02Z</time>
      </trkpt>
      <trkpt lat="47.25721" lon="-1.52909">
        <ele>20</ele>
        <time>2023-11-15T09:53:33Z</time>
      </trkpt>
      <trkpt lat="47.25701" lon="-1.52925">
        <ele>21</ele>
        <time>2023-11-15T09:54:03Z</time>
      </trkpt>
      <trkpt lat="47.25683" lon="-1.52939">
        <ele>21</ele>
        <time>2023-11-15T09:54:30Z</time>
      </trkpt>
      <trkpt lat="47.25665" lon="-1.52951">
        <ele>21</ele>
        <time>2023-11-15T09:54:57Z</time>
      </trkpt>
      <trkpt lat="47.25636" lon="-1.52972">
        <ele>22</ele>
        <time>2023-11-15T09:55:40Z</time>
      </trkpt>
      <trkpt lat="47.2561" lon="-1.52985">
        <ele>22</ele>
        <time>2023-11-15T09:56:17Z</time>
      </trkpt>
      <trkpt lat="47.2559" lon="-1.53003">
        <ele>22</ele>
        <time>2023-11-15T09:56:48Z</time>
      </trkpt>
      <trkpt lat="47.25566" lon="-1.53004">
        <ele>22</ele>
        <time>2023-11-15T09:57:20Z</time>
      </trkpt>
      <trkpt lat="47.25538" lon="-1.53012">
        <ele>22</ele>
        <time>2023-11-15T09:57:58Z</time>
      </trkpt>
      <trkpt lat="47.2551" lon="-1.53011">
        <ele>21</ele>
        <time>2023-11-15T09:58:35Z</time>
      </trkpt>
      <trkpt lat="47.25491" lon="-1.5302">
        <ele>21</ele>
        <time>2023-11-15T09:59:02Z</time>
      </trkpt>
      <trkpt lat="47.25466" lon="-1.53025">
        <ele>22</ele>
        <time>2023-11-15T09:59:36Z</time>
      </trkpt>
      <trkpt lat="47.25467" lon="-1.53064">
        <ele>22</ele>
        <time>2023-11-15T10:00:11Z</time>
      </trkpt>
      <trkpt lat="47.25472" lon="-1.53097">
        <ele>22</ele>
        <time>2023-11-15T10:00:42Z</time>
      </trkpt>
      <trkpt lat="47.25478" lon="-1.53189">
        <ele>21</ele>
        <time>2023-11-15T10:02:05Z</time>
      </trkpt>
      <trkpt lat="47.2548" lon="-1.5322">
        <ele>21</ele>
        <time>2023-11-15T10:02:33Z</time>
      </trkpt>
      <trkpt lat="47.25498" lon="-1.53418">
        <ele>19</ele>
        <time>2023-11-15T10:05:34Z</time>
      </trkpt>
      <trkpt lat="47.25503" lon="-1.53449">
        <ele>20</ele>
        <time>2023-11-15T10:06:03Z</time>
      </trkpt>
      <trkpt lat="47.2551" lon="-1.53545">
        <ele>19</ele>
        <time>2023-11-15T10:07:31Z</time>
      </trkpt>
      <trkpt lat="47.25513" lon="-1.53574">
        <ele>18</ele>
        <time>2023-11-15T10:07:57Z</time>
      </trkpt>
      <trkpt lat="47.25515" lon="-1.53605">
        <ele>17</ele>
        <time>2023-11-15T10:08:26Z</time>
      </trkpt>
      <trkpt lat="47.25512" lon="-1.53665">
        <ele>17</ele>
        <time>2023-11-15T10:09:20Z</time>
      </trkpt>
      <trkpt lat="47.25517" lon="-1.53702">
        <ele>16</ele>
        <time>2023-11-15T10:09:54Z</time>
      </trkpt>
      <trkpt lat="47.25525" lon="-1.5374">
        <ele>15</ele>
        <time>2023-11-15T10:10:30Z</time>
      </trkpt>
      <trkpt lat="47.25543" lon="-1.53789">
        <ele>12</ele>
        <time>2023-11-15T10:11:21Z</time>
      </trkpt>
      <trkpt lat="47.2555" lon="-1.53815">
        <ele>10</ele>
        <time>2023-11-15T10:11:46Z</time>
      </trkpt>
      <trkpt lat="47.25558" lon="-1.53841">
        <ele>9</ele>
        <time>2023-11-15T10:12:12Z</time>
      </trkpt>
      <trkpt lat="47.25566" lon="-1.53867">
        <ele>8</ele>
        <time>2023-11-15T10:12:38Z</time>
      </trkpt>
      <trkpt lat="47.25596" lon="-1.5397">
        <ele>10</ele>
        <time>2023-11-15T10:14:19Z</time>
      </trkpt>
      <trkpt lat="47.25607" lon="-1.54009">
        <ele>13</ele>
        <time>2023-11-15T10:14:58Z</time>
      </trkpt>
      <trkpt lat="47.25615" lon="-1.5405">
        <ele>15</ele>
        <time>2023-11-15T10:15:36Z</time>
      </trkpt>
      <trkpt lat="47.25611" lon="-1.54004">
        <ele>13</ele>
        <time>2023-11-15T10:16:18Z</time>
      </trkpt>
      <trkpt lat="47.25588" lon="-1.54003">
        <ele>12</ele>
        <time>2023-11-15T10:16:49Z</time>
      </trkpt>
      <trkpt lat="47.25566" lon="-1.54016">
        <ele>13</ele>
        <time>2023-11-15T10:17:20Z</time>
      </trkpt>
      <trkpt lat="47.25594" lon="-1.53983">
        <ele>11</ele>
        <time>2023-11-15T10:18:08Z</time>
      </trkpt>
      <trkpt lat="47.25606" lon="-1.53961">
        <ele>9</ele>
        <time>2023-11-15T10:18:34Z</time>
      </trkpt>
      <trkpt lat="47.25646" lon="-1.53941">
        <ele>9</ele>
        <time>2023-11-15T10:19:30Z</time>
      </trkpt>
      <trkpt lat="47.25667" lon="-1.5394">
        <ele>9</ele>
        <time>2023-11-15T10:19:58Z</time>
      </trkpt>
      <trkpt lat="47.25699" lon="-1.53948">
        <ele>9</ele>
        <time>2023-11-15T10:20:42Z</time>
      </trkpt>
      <trkpt lat="47.25719" lon="-1.53968">
        <ele>10</ele>
        <time>2023-11-15T10:21:14Z</time>
      </trkpt>
      <trkpt lat="47.25737" lon="-1.54007">
        <ele>12</ele>
        <time>2023-11-15T10:21:57Z</time>
      </trkpt>
      <trkpt lat="47.25745" lon="-1.54045">
        <ele>13</ele>
        <time>2023-11-15T10:22:33Z</time>
      </trkpt>
      <trkpt lat="47.25755" lon="-1.54081">
        <ele>14</ele>
        <time>2023-11-15T10:23:08Z</time>
      </trkpt>
      <trkpt lat="47.25769" lon="-1.54111">
        <ele>16</ele>
        <time>2023-11-15T10:23:41Z</time>
      </trkpt>
      <trkpt lat="47.25779" lon="-1.54143">
        <ele>18</ele>
        <time>2023-11-15T10:24:13Z</time>
      </trkpt>
      <trkpt lat="47.25799" lon="-1.54203">
        <ele>22</ele>
        <time>2023-11-15T10:25:13Z</time>
      </trkpt>
      <trkpt lat="47.25814" lon="-1.54234">
        <ele>24</ele>
        <time>2023-11-15T10:25:48Z</time>
      </trkpt>
      <trkpt lat="47.25827" lon="-1.54258">
        <ele>25</ele>
        <time>2023-11-15T10:26:16Z</time>
      </trkpt>
      <trkpt lat="47.25848" lon="-1.54272">
        <ele>27</ele>
        <time>2023-11-15T10:26:46Z</time>
      </trkpt>
      <trkpt lat="47.25872" lon="-1.54288">
        <ele>28</ele>
        <time>2023-11-15T10:27:21Z</time>
      </trkpt>
      <trkpt lat="47.25899" lon="-1.54293">
        <ele>30</ele>
        <time>2023-11-15T10:27:58Z</time>
      </trkpt>
      <trkpt lat="47.2593" lon="-1.5429">
        <ele>30</ele>
        <time>2023-11-15T10:28:39Z</time>
      </trkpt>
      <trkpt lat="47.25963" lon="-1.54281">
        <ele>29</ele>
        <time>2023-11-15T10:29:24Z</time>
      </trkpt>
      <trkpt lat="47.26" lon="-1.54268">
        <ele>27</ele>
        <time>2023-11-15T10:30:15Z</time>
      </trkpt>
      <trkpt lat="47.2602" lon="-1.54262">
        <ele>26</ele>
        <time>2023-11-15T10:30:42Z</time>
      </trkpt>
      <trkpt lat="47.2606" lon="-1.54263">
        <ele>23</ele>
        <time>2023-11-15T10:31:35Z</time>
      </trkpt>
      <trkpt lat="47.26089" lon="-1.54266">
        <ele>22</ele>
        <time>2023-11-15T10:32:14Z</time>
      </trkpt>
      <trkpt lat="47.26109" lon="-1.5427">
        <ele>22</ele>
        <time>2023-11-15T10:32:41Z</time>
      </trkpt>
      <trkpt lat="47.26148" lon="-1.5427">
        <ele>22</ele>
        <time>2023-11-15T10:33:33Z</time>
      </trkpt>
      <trkpt lat="47.26169" lon="-1.54273">
        <ele>21</ele>
        <time>2023-11-15T10:34:01Z</time>
      </trkpt>
      <trkpt lat="47.26196" lon="-1.54277">
        <ele>21</ele>
        <time>2023-11-15T10:34:38Z</time>
      </trkpt>
      <trkpt lat="47.26217" lon="-1.54279">
        <ele>20</ele>
        <time>2023-11-15T10:35:06Z</time>
      </trkpt>
      <trkpt lat="47.26238" lon="-1.54281">
        <ele>20</ele>
        <time>2023-11-15T10:35:34Z</time>
      </trkpt>
      <trkpt lat="47.26259" lon="-1.54289">
        <ele>19</ele>
        <time>2023-11-15T10:36:03Z</time>
      </trkpt>
      <trkpt lat="47.2628" lon="-1.54307">
        <ele>19</ele>
        <time>2023-11-15T10:36:35Z</time>
      </trkpt>
      <trkpt lat="47.26299" lon="-1.54325">
        <ele>19</ele>
        <time>2023-11-15T10:37:05Z</time>
      </trkpt>
      <trkpt lat="47.26317" lon="-1.54345">
        <ele>19</ele>
        <time>2023-11-15T10:37:35Z</time>
      </trkpt>
      <trkpt lat="47.26361" lon="-1.54386">
        <ele>19</ele>
        <time>2023-11-15T10:38:45Z</time>
      </trkpt>
      <trkpt lat="47.26379" lon="-1.54401">
        <ele>19</ele>
        <time>2023-11-15T10:39:12Z</time>
      </trkpt>
      <trkpt lat="47.26396" lon="-1.54418">
        <ele>19</ele>
        <time>2023-11-15T10:39:40Z</time>
      </trkpt>
      <trkpt lat="47.26412" lon="-1.54433">
        <ele>19</ele>
        <time>2023-11-15T10:40:05Z</time>
      </trkpt>
      <trkpt lat="47.26443" lon="-1.54444">
        <ele>20</ele>
        <time>2023-11-15T10:40:48Z</time>
      </trkpt>
      <trkpt lat="47.26468" lon="-1.54435">
        <ele>21</ele>
        <time>2023-11-15T10:41:22Z</time>
      </trkpt>
      <trkpt lat="47.26492" lon="-1.54416">
        <ele>22</ele>
        <time>2023-11-15T10:41:58Z</time>
      </trkpt>
      <trkpt lat="47.26518" lon="-1.54398">
        <ele>22</ele>
        <time>2023-11-15T10:42:37Z</time>
      </trkpt>
      <trkpt lat="47.26536" lon="-1.54391">
        <ele>22</ele>
        <time>2023-11-15T10:43:02Z</time>
      </trkpt>
      <trkpt lat="47.26554" lon="-1.54389">
        <ele>22</ele>
        <time>2023-11-15T10:43:26Z</time>
      </trkpt>
      <trkpt lat="47.26569" lon="-1.54416">
        <ele>22</ele>
        <time>2023-11-15T10:43:57Z</time>
      </trkpt>
      <trkpt lat="47.26583" lon="-1.54459">
        <ele>23</ele>
        <time>2023-11-15T10:44:40Z</time>
      </trkpt>
      <trkpt lat="47.26601" lon="-1.54469">
        <ele>23</ele>
        <time>2023-11-15T10:45:06Z</time>
      </trkpt>
      <trkpt lat="47.26634" lon="-1.54461">
        <ele>23</ele>
        <time>2023-11-15T10:45:51Z</time>
      </trkpt>
      <trkpt lat="47.26662" lon="-1.54457">
        <ele>24</ele>
        <time>2023-11-15T10:46:28Z</time>
      </trkpt>
      <trkpt lat="47.2669" lon="-1.5446">
        <ele>25</ele>
        <time>2023-11-15T10:47:06Z</time>
      </trkpt>
      <trkpt lat="47.26721" lon="-1.54469">
        <ele>26</ele>
        <time>2023-11-15T10:47:48Z</time>
      </trkpt>
      <trkpt lat="47.26742" lon="-1.54486">
        <ele>27</ele>
        <time>2023-11-15T10:48:20Z</time>
      </trkpt>
      <trkpt lat="47.26761" lon="-1.54505">
        <ele>28</ele>
        <time>2023-11-15T10:48:50Z</time>
      </trkpt>
      <trkpt lat="47.26785" lon="-1.54519">
        <ele>28</ele>
        <time>2023-11-15T10:49:25Z</time>
      </trkpt>
      <trkpt lat="47.26803" lon="-1.54541">
        <ele>28</ele>
        <time>2023-11-15T10:49:56Z</time>
      </trkpt>
      <trkpt lat="47.26822" lon="-1.54558">
        <ele>29</ele>
        <time>2023-11-15T10:50:26Z</time>
      </trkpt>
      <trkpt lat="47.26847" lon="-1.54563">
        <ele>29</ele>
        <time>2023-11-15T10:50:59Z</time>
      </trkpt>
      <trkpt lat="47.2687" lon="-1.54553">
        <ele>29</ele>
        <time>2023-11-15T10:51:31Z</time>
      </trkpt>
      <trkpt lat="47.26892" lon="-1.54523">
        <ele>29</ele>
        <time>2023-11-15T10:52:11Z</time>
      </trkpt>
      <trkpt lat="47.26902" lon="-1.54479">
        <ele>28</ele>
        <time>2023-11-15T10:52:53Z</time>
      </trkpt>
      <trkpt lat="47.26884" lon="-1.54461">
        <ele>27</ele>
        <time>2023-11-15T10:53:23Z</time>
      </trkpt>
    </trkseg>
  </trk>
</gpx>